createdAt,value
2023-03-29T00:03:36.125Z,-4.10
2023-03-29T00:13:40.229Z,-4.10
2023-03-29T00:23:45.481Z,-4.30
2023-03-29T00:33:49.247Z,-4.50
2023-03-29T00:43:57.417Z,-4.70
2023-03-29T00:54:05.191Z,-4.90
2023-03-29T01:04:19.658Z,-5.10
2023-03-29T01:14:30.534Z,-5.40
2023-03-29T01:24:50.608Z,-5.60
2023-03-29T01:35:01.202Z,-5.80
2023-03-29T01:45:15.080Z,-6.20
2023-03-29T01:55:25.537Z,-6.40
2023-03-29T02:05:31.849Z,-6.60
2023-03-29T02:15:37.448Z,-6.70
2023-03-29T02:25:41.628Z,-6.80
2023-03-29T02:35:54.632Z,-6.90
2023-03-29T02:45:59.428Z,-7.10
2023-03-29T02:56:07.591Z,-7.10
2023-03-29T03:06:12.247Z,-7.30
2023-03-29T03:16:17.453Z,-7.40
2023-03-29T03:26:21.178Z,-7.50
2023-03-29T03:36:29.219Z,-7.50
2023-03-29T03:46:33.966Z,-7.70
2023-03-29T03:56:39.848Z,-7.90
2023-03-29T04:06:44.249Z,-8.00
2023-03-29T04:17:15.814Z,-8.00
2023-03-29T04:27:40.153Z,-8.10
2023-03-29T04:38:04.534Z,-8.10
2023-03-29T04:48:08.890Z,-8.00
2023-03-29T04:58:18.549Z,-7.90
2023-03-29T05:08:24.477Z,-7.70
2023-03-29T05:18:56.175Z,-7.50
2023-03-29T05:29:01.608Z,-7.20
2023-03-29T05:39:07.537Z,-6.90
2023-03-29T05:49:12.579Z,-6.40
2023-03-29T05:59:30.425Z,-5.80
2023-03-29T06:09:34.313Z,-4.80
2023-03-29T06:19:42.595Z,-3.70
2023-03-29T06:29:46.513Z,-1.30
2023-03-29T06:39:53.431Z,1.40
2023-03-29T06:50:02.657Z,4.70
2023-03-29T07:00:18.389Z,6.90
2023-03-29T07:10:47.698Z,8.80
2023-03-29T07:21:12.966Z,11.30
2023-03-29T07:31:17.737Z,12.90
2023-03-29T07:41:28.453Z,14.40
2023-03-29T07:51:38.235Z,16.20
2023-03-29T08:01:49.033Z,17.60
2023-03-29T08:12:06.747Z,19.60
2023-03-29T08:22:15.029Z,18.70
2023-03-29T08:32:39.550Z,20.60
2023-03-29T08:43:12.913Z,22.40
2023-03-29T08:53:41.843Z,24.80
2023-03-29T09:04:06.099Z,26.10
2023-03-29T09:14:53.935Z,26.80
2023-03-29T09:25:13.065Z,28.00
2023-03-29T09:35:27.258Z,28.70
2023-03-29T09:45:33.529Z,30.60
2023-03-29T09:55:40.807Z,32.60
2023-03-29T10:06:09.765Z,34.00
2023-03-29T10:16:22.829Z,33.20
2023-03-29T10:26:33.184Z,34.90
2023-03-29T10:36:37.486Z,35.70
2023-03-29T10:46:45.379Z,36.40
2023-03-29T10:56:53.824Z,38.20
2023-03-29T11:07:34.665Z,39.60
2023-03-29T11:17:54.154Z,41.20
2023-03-29T11:28:07.745Z,41.60
2023-03-29T11:38:23.939Z,41.80
2023-03-29T11:48:35.135Z,41.50
2023-03-29T11:58:43.764Z,40.40
2023-03-29T12:08:56.847Z,41.10
2023-03-29T12:19:06.373Z,42.20
2023-03-29T12:29:29.721Z,41.50
2023-03-29T12:39:34.100Z,41.60
2023-03-29T12:50:00.964Z,41.80
2023-03-29T13:00:20.525Z,39.50
2023-03-29T13:10:42.246Z,38.10
2023-03-29T13:20:52.553Z,37.90
2023-03-29T13:31:05.626Z,35.70
2023-03-29T13:41:29.677Z,34.10
2023-03-29T13:51:45.221Z,31.90
2023-03-29T14:01:54.701Z,28.90
2023-03-29T14:12:02.596Z,27.10
2023-03-29T14:22:13.990Z,22.30
2023-03-29T14:32:21.612Z,17.60
2023-03-29T14:42:29.125Z,14.60
2023-03-29T14:52:34.976Z,13.30
2023-03-29T15:02:39.734Z,11.80
2023-03-29T15:12:46.378Z,11.50
2023-03-29T15:23:03.736Z,11.50
2023-03-29T15:33:34.401Z,11.30
2023-03-29T15:43:38.328Z,10.40
2023-03-29T15:53:44.010Z,9.40
2023-03-29T16:03:48.262Z,8.80
2023-03-29T16:13:53.664Z,8.20
2023-03-29T16:23:57.365Z,8.00
2023-03-29T16:34:03.642Z,7.50
2023-03-29T16:44:07.909Z,6.90
2023-03-29T16:54:12.991Z,6.20
2023-03-29T17:04:17.531Z,5.50
2023-03-29T17:14:22.764Z,4.90
2023-03-29T17:24:26.637Z,4.30
2023-03-29T17:34:33.027Z,3.60
2023-03-29T17:44:36.859Z,3.00
2023-03-29T17:54:41.795Z,2.60
2023-03-29T18:04:45.542Z,2.20
2023-03-29T18:14:51.076Z,1.90
2023-03-29T18:24:55.053Z,1.70
2023-03-29T18:35:02.357Z,1.50
2023-03-29T18:45:07.250Z,1.20
2023-03-29T18:55:12.610Z,1.10
2023-03-29T19:05:16.377Z,1.00
2023-03-29T19:15:22.012Z,0.90
2023-03-29T19:25:25.919Z,0.70
2023-03-29T19:35:31.095Z,0.50
2023-03-29T19:45:34.726Z,0.30
2023-03-29T19:55:42.550Z,0.00
2023-03-29T20:05:47.452Z,-0.30
2023-03-29T20:15:52.764Z,-0.60
2023-03-29T20:25:57.229Z,-0.90
2023-03-29T20:36:02.322Z,-0.90
2023-03-29T20:46:06.108Z,-0.90
2023-03-29T20:56:11.023Z,-1.10
2023-03-29T21:06:15.166Z,-1.20
2023-03-29T21:16:20.636Z,-1.30
2023-03-29T21:26:24.408Z,-1.30
2023-03-29T21:36:29.713Z,-1.20
2023-03-29T21:46:33.382Z,-1.30
2023-03-29T21:56:38.833Z,-1.40
2023-03-29T22:06:42.663Z,-1.50
2023-03-29T22:16:47.942Z,-1.60
2023-03-29T22:26:51.588Z,-1.80
2023-03-29T22:36:56.689Z,-2.00
2023-03-29T22:47:00.645Z,-1.80
2023-03-29T22:57:05.753Z,-1.60
2023-03-29T23:07:09.527Z,-1.70
2023-03-29T23:17:19.373Z,-1.80
2023-03-29T23:27:23.061Z,-1.40
2023-03-29T23:37:28.340Z,-0.90
2023-03-29T23:47:32.008Z,-0.40
2023-03-29T23:57:37.336Z,0.00
